PASY METAR and TAF weather

Enter ICAO airport designator
Station Type Date Time Source
PASY METAR 2023/02/05 13:59 UTC NOAA

PASY 051359Z 35018G26KT 7SM HZ BKN048 BKN055 M02/M10 A2947 RMK AO2A PK WND 36032/1328 SLP982 WND DATA ESTMD T10201100 RVRNO PNO FZRANO $


Station Type Date Time Source
PASY Decoded METAR 2023/02/05 13:59 UTC NOAA

SHEMYA EARECKSON AS, AK, United States (PASY) 52-43N 174-07E
Feb 05, 2023 - 08:59 AM EST / 2023.02.05 1359 UTC
Wind: from the N (350 degrees) at 21 MPH (18 KT) gusting to 30 MPH (26 KT):0
Visibility: 7 mile(s):0
Sky conditions: mostly cloudy
Weather: haze
Temperature: 28.4 F (-2.0 C)
Windchill: 15 F (-9 C):1
Dew Point: 14.0 F (-10.0 C)
Relative Humidity: 54%
Pressure (altimeter): 29.47 in. Hg (997 hPa)
ob: PASY 051359Z 35018G26KT 7SM HZ BKN048 BKN055 M02/M10 A2947 RMK AO2A PK WND 36032/1328 SLP982 WND DATA ESTMD T10201100 RVRNO PNO FZRANO
cycle: 14

Station Type Date Time Source
PASY TAF 2023/02/05 14:05 UTC NOAA

TAF PASY 051400Z 0514/0620 33025KT 9999 SCT035 BKN050 620505 QNH2940INS
BECMG 0521/0522 32025KT 9999 FEW026 FEW040 BKN055 620554 510003 QNH2954INS
BECMG 0608/0609 30020KT 9999 BKN045 620455 QNH2969INS
BECMG 0615/0616 29009KT 9999 FEW035 BKN050 620505 QNH2971INS TX00/0610Z TNM04/0519Z

Example: see airport list